Time;durP1;ratioP1;P1;durP2;ratioP2;P2;SDS_P1;SDS_P2;PMS_P1;PMS_P2;Temp;Humidity;BMP_temperature;BMP_pressure;BME280_temperature;BME280_humidity;BME280_pressure;Samples;Min_cycle;Max_cycle;Signal;HPM_P1;HPM_P2
2022/09/13 00:00:58;;;;;;;;;;;22.00;46.30;;;;;;6242598;22;19986;-85
2022/09/13 00:03:23;;;;;;;;;;;22.00;46.40;;;;;;6242227;22;19918;-85
2022/09/13 00:05:49;;;;;;;;;;;22.00;46.30;;;;;;6239358;23;19920;-95
2022/09/13 00:08:15;;;;;;;;;;;22.00;46.30;;;;;;6242882;22;19914;-88
2022/09/13 00:10:41;;;;;;;;;;;21.90;46.40;;;;;;6241930;23;19918;-88
2022/09/13 00:13:09;;;;;;;;;;;22.00;46.40;;;;;;6245414;22;19955;-87
2022/09/13 00:15:35;;;;;;;;;;;22.00;46.40;;;;;;6249618;22;19995;-87
2022/09/13 00:18:01;;;;;;;;;;;22.10;46.40;;;;;;6243528;22;19950;-88
2022/09/13 00:20:26;;;;;;;;;;;22.10;46.40;;;;;;6244325;23;19922;-92
2022/09/13 00:22:52;;;;;;;;;;;22.10;46.40;;;;;;6243282;22;19903;-88
2022/09/13 00:25:17;;;;;;;;;;;22.20;46.30;;;;;;6241502;23;19920;-88
2022/09/13 00:27:44;;;;;;;;;;;22.20;46.20;;;;;;6240785;22;19904;-87
2022/09/13 00:30:10;;;;;;;;;;;22.20;46.20;;;;;;6266426;22;19912;-87
2022/09/13 00:32:35;;;;;;;;;;;22.20;46.30;;;;;;6244538;22;20035;-87
2022/09/13 00:35:02;;;;;;;;;;;22.20;46.20;;;;;;6241911;22;19919;-93
2022/09/13 00:37:27;;;;;;;;;;;22.10;46.30;;;;;;6269979;22;19926;-87
2022/09/13 00:39:53;;;;;;;;;;;22.10;46.20;;;;;;6241566;22;19912;-88
2022/09/13 00:42:23;;;;;;;;;;;22.10;46.30;;;;;;6243339;23;19907;-87
2022/09/13 00:44:51;;;;;;;;;;;22.10;46.30;;;;;;6243810;22;20422;-87
2022/09/13 00:47:19;;;;;;;;;;;22.10;46.20;;;;;;6246319;23;19908;-85
2022/09/13 00:49:46;;;;;;;;;;;22.10;46.20;;;;;;6240616;22;19915;-88
2022/09/13 00:52:14;;;;;;;;;;;22.20;46.20;;;;;;6247481;22;19912;-87
2022/09/13 00:54:43;;;;;;;;;;;22.20;46.20;;;;;;6266473;22;19934;-87
2022/09/13 00:57:10;;;;;;;;;;;22.30;46.20;;;;;;6243961;22;20119;-92
2022/09/13 00:59:38;;;;;;;;;;;22.30;46.30;;;;;;6241500;22;19914;-88
2022/09/13 01:02:04;;;;;;;;;;;22.30;46.20;;;;;;6242845;22;20327;-88
2022/09/13 01:04:31;;;;;;;;;;;22.30;46.30;;;;;;6241855;22;19918;-87
2022/09/13 01:07:01;;;;;;;;;;;22.30;46.30;;;;;;6243024;22;19914;-88
2022/09/13 01:09:26;;;;;;;;;;;22.30;46.40;;;;;;6241290;22;20002;-88
2022/09/13 01:11:59;;;;;;;;;;;22.30;46.40;;;;;;6244809;22;19939;-93
2022/09/13 01:14:25;;;;;;;;;;;22.30;46.30;;;;;;6241659;22;19908;-93
2022/09/13 01:16:51;;;;;;;;;;;22.30;46.40;;;;;;6246782;22;20248;-92
2022/09/13 01:19:16;;;;;;;;;;;22.30;46.30;;;;;;6238441;22;19912;-94
2022/09/13 01:22:00;;;;;;;;;;;22.40;46.30;;;;;;6250245;23;19918;-86
2022/09/13 01:24:47;;;;;;;;;;;22.40;46.30;;;;;;6242744;22;20283;-93
2022/09/13 01:27:13;;;;;;;;;;;22.50;46.30;;;;;;6243054;23;19912;-88
2022/09/13 01:29:48;;;;;;;;;;;22.60;46.20;;;;;;6242762;22;19914;-86
2022/09/13 01:32:41;;;;;;;;;;;22.70;46.10;;;;;;6242166;23;20303;-85
2022/09/13 01:35:18;;;;;;;;;;;22.70;46.00;;;;;;6206793;23;19914;-88
2022/09/13 01:37:53;;;;;;;;;;;22.80;46.00;;;;;;6242078;22;19908;-88
2022/09/13 01:40:31;;;;;;;;;;;22.80;45.90;;;;;;6243472;22;20256;-93
2022/09/13 01:43:14;;;;;;;;;;;22.90;45.80;;;;;;6242603;22;19914;-88
2022/09/13 01:45:58;;;;;;;;;;;23.00;45.80;;;;;;6244571;22;19920;-85
2022/09/13 01:48:34;;;;;;;;;;;23.00;45.70;;;;;;6239693;22;20032;-88
2022/09/13 01:51:03;;;;;;;;;;;23.10;45.60;;;;;;6242515;22;20043;-88
2022/09/13 01:53:51;;;;;;;;;;;23.20;45.60;;;;;;6240376;22;20235;-89
2022/09/13 01:56:30;;;;;;;;;;;23.20;45.50;;;;;;6241685;22;19908;-93
2022/09/13 01:58:58;;;;;;;;;;;23.20;45.40;;;;;;6242720;22;19970;-88
2022/09/13 02:01:32;;;;;;;;;;;23.30;45.30;;;;;;6243880;22;19911;-89
2022/09/13 02:04:00;;;;;;;;;;;23.30;45.30;;;;;;6243016;22;19923;-91
2022/09/13 02:06:29;;;;;;;;;;;23.30;45.30;;;;;;6241896;23;19921;-86
2022/09/13 02:08:59;;;;;;;;;;;23.40;45.20;;;;;;6243828;22;19907;-88
2022/09/13 02:11:25;;;;;;;;;;;23.40;45.20;;;;;;6241297;22;20244;-85
2022/09/13 02:14:09;;;;;;;;;;;23.50;45.20;;;;;;6241335;22;19912;-88
2022/09/13 02:16:49;;;;;;;;;;;23.50;45.10;;;;;;6242221;22;19990;-92
2022/09/13 02:19:23;;;;;;;;;;;23.50;45.00;;;;;;6265353;22;20630;-85
2022/09/13 02:21:51;;;;;;;;;;;23.50;45.00;;;;;;6241727;23;19919;-90
2022/09/13 02:24:20;;;;;;;;;;;23.60;44.90;;;;;;6242491;22;19907;-91
2022/09/13 02:26:46;;;;;;;;;;;23.60;44.90;;;;;;6241764;22;19907;-87
2022/09/13 02:29:16;;;;;;;;;;;23.50;45.10;;;;;;6241677;22;19941;-88
2022/09/13 02:31:55;;;;;;;;;;;23.50;45.40;;;;;;6243444;23;19919;-88
2022/09/13 02:34:22;;;;;;;;;;;23.40;45.60;;;;;;6240025;22;20663;-88
2022/09/13 02:36:48;;;;;;;;;;;23.30;45.90;;;;;;6242260;22;19908;-84
2022/09/13 02:39:15;;;;;;;;;;;23.30;46.10;;;;;;6241029;22;19904;-89
2022/09/13 02:41:40;;;;;;;;;;;23.30;46.20;;;;;;6245465;22;19911;-92
2022/09/13 02:44:25;;;;;;;;;;;23.20;46.30;;;;;;6239696;22;19986;-88
2022/09/13 02:46:57;;;;;;;;;;;23.20;46.40;;;;;;6243151;23;19911;-89
2022/09/13 02:49:30;;;;;;;;;;;23.20;46.50;;;;;;6243520;22;19907;-94
2022/09/13 02:52:17;;;;;;;;;;;23.20;46.60;;;;;;6241447;23;19930;-92
2022/09/13 02:54:51;;;;;;;;;;;23.20;46.70;;;;;;6240393;22;19907;-88
2022/09/13 02:57:16;;;;;;;;;;;23.30;46.70;;;;;;6241819;22;19908;-88
2022/09/13 02:59:42;;;;;;;;;;;23.20;47.40;;;;;;6239458;22;19987;-88
2022/09/13 03:02:09;;;;;;;;;;;23.10;49.50;;;;;;6239900;23;19929;-93
2022/09/13 03:04:35;;;;;;;;;;;22.90;51.00;;;;;;6239045;22;19916;-86
2022/09/13 03:07:03;;;;;;;;;;;22.80;52.50;;;;;;6246349;23;19950;-93
2022/09/13 03:09:29;;;;;;;;;;;22.70;53.90;;;;;;6245562;22;19986;-94
2022/09/13 03:12:14;;;;;;;;;;;22.60;55.10;;;;;;6241129;23;19923;-88
2022/09/13 03:14:43;;;;;;;;;;;22.60;56.30;;;;;;6244650;22;19912;-85
2022/09/13 03:17:28;;;;;;;;;;;22.60;57.30;;;;;;6241137;22;19912;-88
2022/09/13 03:20:08;;;;;;;;;;;22.60;58.10;;;;;;6241615;22;19916;-88
2022/09/13 03:22:52;;;;;;;;;;;22.60;58.70;;;;;;6243301;22;19908;-93
2022/09/13 03:25:27;;;;;;;;;;;22.70;59.30;;;;;;6239865;23;19919;-87
2022/09/13 03:28:11;;;;;;;;;;;22.70;59.70;;;;;;6242498;22;20330;-92
2022/09/13 03:30:40;;;;;;;;;;;22.70;60.00;;;;;;6242673;23;19999;-93
2022/09/13 03:33:10;;;;;;;;;;;22.80;60.00;;;;;;6241633;22;19935;-85
2022/09/13 03:35:45;;;;;;;;;;;22.80;60.10;;;;;;6242986;22;19918;-91
2022/09/13 03:38:12;;;;;;;;;;;22.80;60.00;;;;;;6242622;22;19907;-93
2022/09/13 03:40:40;;;;;;;;;;;22.70;60.10;;;;;;6242830;23;19915;-88
2022/09/13 03:43:15;;;;;;;;;;;22.70;60.20;;;;;;6243341;22;19930;-85
2022/09/13 03:45:45;;;;;;;;;;;22.70;60.50;;;;;;6256151;23;19923;-88
2022/09/13 03:48:11;;;;;;;;;;;22.70;60.60;;;;;;6242917;22;19990;-89
2022/09/13 03:50:38;;;;;;;;;;;22.70;60.70;;;;;;6243499;22;20334;-85
2022/09/13 03:53:06;;;;;;;;;;;22.70;60.70;;;;;;6241616;22;19904;-88
2022/09/13 03:55:32;;;;;;;;;;;22.60;60.80;;;;;;6244064;22;19919;-92
2022/09/13 03:57:58;;;;;;;;;;;22.60;60.80;;;;;;6243452;22;19908;-90
2022/09/13 04:00:23;;;;;;;;;;;22.50;60.80;;;;;;6243740;23;19922;-88
2022/09/13 04:02:49;;;;;;;;;;;22.50;60.90;;;;;;6246997;22;19910;-91
2022/09/13 04:05:15;;;;;;;;;;;22.50;60.60;;;;;;6241785;23;19924;-93
2022/09/13 04:07:40;;;;;;;;;;;22.40;60.40;;;;;;6243146;22;20276;-88
2022/09/13 04:10:06;;;;;;;;;;;22.30;60.40;;;;;;6243229;23;19918;-88
2022/09/13 04:12:32;;;;;;;;;;;22.30;60.60;;;;;;6243773;22;19904;-85
2022/09/13 04:14:57;;;;;;;;;;;22.30;60.80;;;;;;6242772;22;19911;-88
2022/09/13 04:17:23;;;;;;;;;;;22.30;61.00;;;;;;6241311;23;19911;-92
2022/09/13 04:19:48;;;;;;;;;;;22.30;61.30;;;;;;6243177;22;20502;-86
2022/09/13 04:22:14;;;;;;;;;;;22.30;61.40;;;;;;6244099;23;20359;-93
2022/09/13 04:24:39;;;;;;;;;;;22.30;61.70;;;;;;6241687;22;20295;-88
2022/09/13 04:27:05;;;;;;;;;;;22.30;61.70;;;;;;6243432;23;19907;-88
2022/09/13 04:29:31;;;;;;;;;;;22.30;61.80;;;;;;6244015;22;19911;-88
2022/09/13 04:31:57;;;;;;;;;;;22.30;61.70;;;;;;6242046;23;20338;-88
2022/09/13 04:34:23;;;;;;;;;;;22.30;61.70;;;;;;6245099;22;19986;-89
2022/09/13 04:36:48;;;;;;;;;;;22.40;61.80;;;;;;6243176;23;19921;-88
2022/09/13 04:39:14;;;;;;;;;;;22.40;61.80;;;;;;6242990;22;19938;-88
2022/09/13 04:41:40;;;;;;;;;;;22.40;61.90;;;;;;6243506;23;20315;-85
2022/09/13 04:44:06;;;;;;;;;;;22.40;61.80;;;;;;6242027;22;20499;-84
2022/09/13 04:46:31;;;;;;;;;;;22.40;61.70;;;;;;6242005;23;19916;-88
2022/09/13 04:48:57;;;;;;;;;;;22.30;61.70;;;;;;6244766;22;19891;-88
2022/09/13 04:51:22;;;;;;;;;;;22.30;61.80;;;;;;6242998;23;19907;-92
2022/09/13 04:53:53;;;;;;;;;;;22.30;61.90;;;;;;6240323;22;19908;-88
2022/09/13 04:56:19;;;;;;;;;;;22.30;62.00;;;;;;6240766;23;19904;-88
2022/09/13 04:58:45;;;;;;;;;;;22.30;62.00;;;;;;6242245;22;20450;-88
2022/09/13 05:01:10;;;;;;;;;;;22.30;62.10;;;;;;6242811;23;20350;-85
2022/09/13 05:03:37;;;;;;;;;;;22.30;62.00;;;;;;6241278;22;19908;-84
2022/09/13 05:06:07;;;;;;;;;;;22.30;62.10;;;;;;6242654;22;20383;-90
2022/09/13 05:08:33;;;;;;;;;;;22.30;62.20;;;;;;6242849;22;19911;-85
2022/09/13 05:10:59;;;;;;;;;;;22.30;62.30;;;;;;6243756;22;19904;-88
2022/09/13 05:13:25;;;;;;;;;;;22.30;62.40;;;;;;6241675;22;20007;-88
2022/09/13 05:15:54;;;;;;;;;;;22.30;62.50;;;;;;6243816;22;19918;-93
2022/09/13 05:18:19;;;;;;;;;;;22.30;62.50;;;;;;6220289;23;19908;-93
2022/09/13 05:20:45;;;;;;;;;;;22.30;62.50;;;;;;6243085;23;19931;-88
2022/09/13 05:23:10;;;;;;;;;;;22.40;62.60;;;;;;6240397;22;19915;-85
2022/09/13 05:25:36;;;;;;;;;;;22.40;62.60;;;;;;6241460;22;19934;-86
2022/09/13 05:28:01;;;;;;;;;;;22.40;62.70;;;;;;6242915;22;20007;-84
2022/09/13 05:30:27;;;;;;;;;;;22.50;62.40;;;;;;6242418;23;20326;-88
2022/09/13 05:32:53;;;;;;;;;;;22.50;62.20;;;;;;6242893;22;19934;-85
2022/09/13 05:35:18;;;;;;;;;;;22.60;62.30;;;;;;6240717;23;19908;-87
2022/09/13 05:37:44;;;;;;;;;;;22.60;62.30;;;;;;6239730;22;20151;-85
2022/09/13 05:40:10;;;;;;;;;;;22.70;62.10;;;;;;6247548;23;19910;-87
2022/09/13 05:42:35;;;;;;;;;;;22.70;61.80;;;;;;6241708;23;19983;-87
2022/09/13 05:45:00;;;;;;;;;;;22.80;61.70;;;;;;6241679;22;20029;-88
2022/09/13 05:47:26;;;;;;;;;;;22.80;61.90;;;;;;6245121;23;19990;-87
2022/09/13 05:49:51;;;;;;;;;;;22.90;61.90;;;;;;6241029;22;19910;-92
2022/09/13 05:52:17;;;;;;;;;;;23.00;62.00;;;;;;6241139;23;19991;-88
2022/09/13 05:54:42;;;;;;;;;;;23.10;62.20;;;;;;6241319;22;19919;-86
2022/09/13 05:57:08;;;;;;;;;;;23.20;62.00;;;;;;6244875;23;20238;-89
2022/09/13 05:59:33;;;;;;;;;;;23.30;62.00;;;;;;6242262;22;19904;-86
2022/09/13 06:01:59;;;;;;;;;;;23.40;62.00;;;;;;6239783;23;19919;-88
2022/09/13 06:04:24;;;;;;;;;;;23.50;62.00;;;;;;6239123;22;19907;-85
2022/09/13 06:06:50;;;;;;;;;;;23.60;62.00;;;;;;6239913;23;19915;-86
2022/09/13 06:09:17;;;;;;;;;;;23.60;61.90;;;;;;6239307;22;20319;-88
2022/09/13 06:11:42;;;;;;;;;;;23.70;62.00;;;;;;6244135;23;19918;-88
2022/09/13 06:14:08;;;;;;;;;;;23.80;62.00;;;;;;6240397;22;20223;-89
2022/09/13 06:16:33;;;;;;;;;;;23.90;62.00;;;;;;6241187;22;19911;-88
2022/09/13 06:18:59;;;;;;;;;;;24.10;62.00;;;;;;6241582;22;19904;-88
2022/09/13 06:21:25;;;;;;;;;;;24.20;61.00;;;;;;6240394;22;19914;-86
2022/09/13 06:23:52;;;;;;;;;;;24.30;61.10;;;;;;6240316;22;19934;-85
2022/09/13 06:26:24;;;;;;;;;;;24.30;61.00;;;;;;6239727;23;19918;-91
2022/09/13 06:28:51;;;;;;;;;;;24.40;61.20;;;;;;6241853;22;19931;-88
2022/09/13 06:31:18;;;;;;;;;;;24.50;61.20;;;;;;6244296;22;19986;-85
2022/09/13 06:33:43;;;;;;;;;;;24.70;61.30;;;;;;6240277;22;19911;-87
2022/09/13 06:36:10;;;;;;;;;;;24.80;61.20;;;;;;6240183;23;20488;-85
2022/09/13 06:38:35;;;;;;;;;;;25.10;61.70;;;;;;6244723;22;19931;-85
2022/09/13 06:41:03;;;;;;;;;;;25.30;62.10;;;;;;6241029;23;19912;-91
2022/09/13 06:43:29;;;;;;;;;;;25.60;62.40;;;;;;6240969;22;19908;-85
2022/09/13 06:45:58;;;;;;;;;;;25.80;62.30;;;;;;6240481;22;19920;-85
2022/09/13 06:48:24;;;;;;;;;;;26.10;62.00;;;;;;6242557;22;19911;-92
2022/09/13 06:50:49;;;;;;;;;;;26.40;62.00;;;;;;6240130;23;20019;-85
2022/09/13 06:53:14;;;;;;;;;;;26.70;62.00;;;;;;6241427;22;19908;-91
2022/09/13 06:55:40;;;;;;;;;;;27.00;61.50;;;;;;6244237;23;19923;-87
2022/09/13 06:58:05;;;;;;;;;;;27.30;61.00;;;;;;6238599;22;19907;-87
2022/09/13 07:00:31;;;;;;;;;;;27.70;61.30;;;;;;6241670;23;20331;-91
2022/09/13 07:02:56;;;;;;;;;;;28.00;59.90;;;;;;6239369;22;19911;-85
2022/09/13 07:05:22;;;;;;;;;;;28.10;58.30;;;;;;6236342;23;19926;-88
2022/09/13 07:07:47;;;;;;;;;;;28.30;57.00;;;;;;6244467;22;19927;-91
2022/09/13 07:10:13;;;;;;;;;;;28.70;58.20;;;;;;6236603;23;19943;-88
2022/09/13 07:12:41;;;;;;;;;;;29.30;58.80;;;;;;6240137;22;19907;-92
2022/09/13 07:15:07;;;;;;;;;;;30.00;58.40;;;;;;6238692;23;19938;-91
2022/09/13 07:17:33;;;;;;;;;;;30.90;57.40;;;;;;6240081;22;19912;-88
2022/09/13 07:20:09;;;;;;;;;;;;;;;;;;;;;
2022/09/13 07:22:35;;;;;;;;;;;32.00;49.90;;;;;;6238972;23;19983;-88
2022/09/13 07:25:01;;;;;;;;;;;32.10;48.20;;;;;;6242098;22;19965;-89
2022/09/13 07:27:28;;;;;;;;;;;32.00;46.50;;;;;;6242747;23;19915;-87
2022/09/13 07:29:54;;;;;;;;;;;31.90;45.80;;;;;;6241467;22;19916;-91
2022/09/13 07:32:19;;;;;;;;;;;31.70;45.00;;;;;;6240011;23;19954;-89
2022/09/13 07:34:45;;;;;;;;;;;31.60;44.90;;;;;;6242600;22;20024;-88
2022/09/13 07:37:11;;;;;;;;;;;31.50;44.50;;;;;;6239825;22;20385;-85
2022/09/13 07:39:36;;;;;;;;;;;31.30;43.80;;;;;;6238728;22;19950;-88
2022/09/13 07:42:02;;;;;;;;;;;31.20;43.90;;;;;;6241324;23;19990;-88
2022/09/13 07:44:27;;;;;;;;;;;31.20;43.90;;;;;;6239460;22;20402;-86
2022/09/13 07:46:53;;;;;;;;;;;31.10;43.50;;;;;;6242309;23;19918;-86
2022/09/13 07:49:18;;;;;;;;;;;31.00;42.80;;;;;;6239967;22;19986;-85
2022/09/13 07:51:44;;;;;;;;;;;30.90;41.60;;;;;;6241953;23;19962;-86
2022/09/13 07:54:12;;;;;;;;;;;30.80;42.40;;;;;;6240924;22;19922;-88
2022/09/13 07:56:38;;;;;;;;;;;30.70;42.40;;;;;;6240573;22;19908;-87
2022/09/13 07:59:05;;;;;;;;;;;30.70;42.30;;;;;;6244093;22;19912;-91
2022/09/13 08:01:33;;;;;;;;;;;30.60;42.20;;;;;;6237525;23;19908;-87
2022/09/13 08:04:00;;;;;;;;;;;30.50;42.30;;;;;;6243355;22;20214;-87
2022/09/13 08:06:26;;;;;;;;;;;30.30;42.30;;;;;;6241325;22;19943;-91
2022/09/13 08:08:52;;;;;;;;;;;30.30;42.20;;;;;;6240940;22;19916;-90
2022/09/13 08:11:19;;;;;;;;;;;30.20;41.80;;;;;;6236839;23;19977;-91
2022/09/13 08:13:45;;;;;;;;;;;30.20;41.90;;;;;;6238551;22;19922;-92
2022/09/13 08:16:11;;;;;;;;;;;30.10;41.90;;;;;;6242190;22;19907;-87
2022/09/13 08:18:36;;;;;;;;;;;30.10;41.80;;;;;;6238062;22;20354;-88
2022/09/13 08:21:01;;;;;;;;;;;30.00;42.20;;;;;;6237177;23;20233;-88
2022/09/13 08:23:30;;;;;;;;;;;30.00;42.10;;;;;;6238668;22;19916;-86
2022/09/13 08:25:59;;;;;;;;;;;30.10;42.10;;;;;;6238582;23;20308;-92
2022/09/13 08:28:24;;;;;;;;;;;30.10;41.80;;;;;;6240869;22;19915;-88
2022/09/13 08:30:50;;;;;;;;;;;30.10;42.30;;;;;;6239848;23;19907;-88
2022/09/13 08:33:15;;;;;;;;;;;30.10;42.10;;;;;;6239033;22;19907;-91
2022/09/13 08:35:48;;;;;;;;;;;30.20;42.20;;;;;;6239194;23;19945;-86
2022/09/13 08:38:17;;;;;;;;;;;30.10;42.20;;;;;;6239694;22;19908;-85
2022/09/13 08:40:44;;;;;;;;;;;30.10;42.20;;;;;;6240263;23;19990;-92
2022/09/13 08:43:28;;;;;;;;;;;30.10;41.90;;;;;;6240474;22;19931;-89
2022/09/13 08:46:05;;;;;;;;;;;30.10;41.60;;;;;;6240203;23;19989;-88
2022/09/13 08:48:33;;;;;;;;;;;30.00;41.60;;;;;;6251114;22;20640;-86
2022/09/13 08:51:02;;;;;;;;;;;29.90;41.10;;;;;;6237058;23;19911;-89
2022/09/13 08:53:29;;;;;;;;;;;29.80;41.50;;;;;;6236488;22;20593;-88
2022/09/13 08:56:09;;;;;;;;;;;29.80;41.70;;;;;;6238657;22;19969;-89
2022/09/13 08:59:00;;;;;;;;;;;29.80;41.50;;;;;;6239127;22;19991;-85
2022/09/13 09:01:31;;;;;;;;;;;29.70;42.00;;;;;;6237685;22;19942;-85
2022/09/13 09:04:05;;;;;;;;;;;29.70;42.10;;;;;;6239186;22;19912;-89
2022/09/13 09:06:32;;;;;;;;;;;29.70;41.60;;;;;;6238184;23;19969;-86
2022/09/13 09:09:04;;;;;;;;;;;29.70;41.50;;;;;;6240560;22;19922;-90
2022/09/13 09:11:49;;;;;;;;;;;29.60;41.80;;;;;;6241978;23;19907;-88
2022/09/13 09:14:27;;;;;;;;;;;29.60;41.60;;;;;;6239211;22;19923;-90
2022/09/13 09:16:54;;;;;;;;;;;29.50;42.00;;;;;;6237763;22;19907;-87
2022/09/13 09:19:20;;;;;;;;;;;29.30;42.60;;;;;;6236311;22;19919;-93
2022/09/13 09:21:47;;;;;;;;;;;29.00;43.20;;;;;;6241813;23;19907;-88
2022/09/13 09:24:16;;;;;;;;;;;28.80;43.70;;;;;;6263839;22;20291;-86
2022/09/13 09:26:42;;;;;;;;;;;28.80;43.70;;;;;;6239878;22;19938;-93
2022/09/13 09:29:16;;;;;;;;;;;28.80;43.90;;;;;;6239267;22;19923;-88
2022/09/13 09:31:45;;;;;;;;;;;28.90;43.80;;;;;;6239046;23;19908;-92
2022/09/13 09:34:21;;;;;;;;;;;28.90;43.80;;;;;;6241814;22;19919;-91
2022/09/13 09:36:58;;;;;;;;;;;28.90;43.80;;;;;;6241208;22;19903;-92
2022/09/13 09:39:26;;;;;;;;;;;29.00;43.90;;;;;;6240828;22;20291;-85
2022/09/13 09:41:56;;;;;;;;;;;29.20;43.90;;;;;;6238578;22;19911;-86
2022/09/13 09:44:23;;;;;;;;;;;29.40;43.60;;;;;;6236407;22;20243;-88
2022/09/13 09:47:08;;;;;;;;;;;29.50;43.30;;;;;;6238749;22;19950;-92
2022/09/13 09:50:21;;;;;;;;;;;29.60;43.20;;;;;;6238547;22;19991;-89
2022/09/13 09:52:27;;;;;;;;;;;29.80;42.90;;;;;;6228396;22;19967;-90
2022/09/13 09:54:55;;;;;;;;;;;30.00;42.70;;;;;;6237923;22;19907;-86
2022/09/13 09:57:22;;;;;;;;;;;30.00;42.50;;;;;;6240340;23;20460;-93
2022/09/13 09:59:47;;;;;;;;;;;30.10;42.20;;;;;;6236282;22;20379;-88
2022/09/13 10:02:17;;;;;;;;;;;30.20;42.20;;;;;;6235980;23;19986;-88
2022/09/13 10:04:53;;;;;;;;;;;30.30;41.80;;;;;;6235093;22;19926;-87
2022/09/13 10:07:37;;;;;;;;;;;30.30;41.70;;;;;;6238126;22;20257;-87
2022/09/13 10:10:18;;;;;;;;;;;30.50;41.60;;;;;;6237605;22;19915;-88
2022/09/13 10:12:48;;;;;;;;;;;30.70;41.60;;;;;;6237570;22;19915;-88
2022/09/13 10:15:18;;;;;;;;;;;30.80;41.20;;;;;;6238082;22;19915;-90
2022/09/13 10:18:00;;;;;;;;;;;30.90;41.10;;;;;;6236365;22;19914;-91
2022/09/13 10:20:26;;;;;;;;;;;31.00;41.00;;;;;;6238650;22;20007;-86
2022/09/13 10:23:11;;;;;;;;;;;31.10;40.80;;;;;;6235909;22;19947;-92
2022/09/13 10:25:37;;;;;;;;;;;31.10;40.80;;;;;;6234384;23;20038;-87
2022/09/13 10:28:03;;;;;;;;;;;31.20;41.00;;;;;;6237725;22;19982;-88
2022/09/13 10:30:37;;;;;;;;;;;31.20;40.90;;;;;;6260795;22;20357;-90
2022/09/13 10:33:03;;;;;;;;;;;31.30;40.70;;;;;;6236492;22;19918;-86
2022/09/13 10:35:29;;;;;;;;;;;31.50;40.70;;;;;;6236961;23;19911;-89
2022/09/13 10:37:55;;;;;;;;;;;31.70;40.50;;;;;;6238109;22;19918;-89
2022/09/13 10:40:37;;;;;;;;;;;31.90;40.40;;;;;;6238538;22;19915;-93
2022/09/13 10:43:06;;;;;;;;;;;32.20;40.00;;;;;;6236939;22;19963;-92
2022/09/13 10:45:33;;;;;;;;;;;32.60;39.70;;;;;;6239769;22;19955;-91
2022/09/13 10:48:11;;;;;;;;;;;32.80;39.00;;;;;;6239592;22;19916;-90
2022/09/13 10:50:36;;;;;;;;;;;33.00;38.70;;;;;;6235891;23;19912;-86
2022/09/13 10:53:04;;;;;;;;;;;33.20;38.20;;;;;;6235743;22;19918;-89
2022/09/13 10:55:30;;;;;;;;;;;33.40;38.10;;;;;;6238553;22;19918;-89
2022/09/13 10:58:02;;;;;;;;;;;33.80;37.00;;;;;;6265744;22;19911;-87
2022/09/13 11:00:34;;;;;;;;;;;34.00;36.40;;;;;;6236773;23;19958;-87
2022/09/13 11:03:16;;;;;;;;;;;34.20;36.60;;;;;;6237845;22;20255;-92
2022/09/13 11:05:51;;;;;;;;;;;34.80;36.50;;;;;;6234940;23;20480;-88
2022/09/13 11:08:16;;;;;;;;;;;35.40;35.40;;;;;;6240465;22;19907;-93
2022/09/13 11:10:54;;;;;;;;;;;35.60;34.60;;;;;;6236966;23;19918;-89
2022/09/13 11:13:43;;;;;;;;;;;35.70;34.00;;;;;;6240091;22;19911;-89
2022/09/13 11:16:18;;;;;;;;;;;35.80;34.20;;;;;;6194378;23;19918;-88
2022/09/13 11:19:02;;;;;;;;;;;35.70;34.00;;;;;;6235747;22;19907;-89
2022/09/13 11:21:31;;;;;;;;;;;35.50;33.90;;;;;;6238884;23;19924;-89
2022/09/13 11:24:02;;;;;;;;;;;35.20;34.10;;;;;;6241156;22;19911;-86
2022/09/13 11:26:32;;;;;;;;;;;35.00;34.20;;;;;;6236627;23;19995;-90
2022/09/13 11:29:07;;;;;;;;;;;34.70;34.40;;;;;;6236419;22;19908;-88
2022/09/13 11:31:45;;;;;;;;;;;34.50;34.30;;;;;;6237632;22;19955;-86
2022/09/13 11:34:15;;;;;;;;;;;34.30;34.70;;;;;;6237816;22;19935;-88
2022/09/13 11:36:49;;;;;;;;;;;34.00;34.80;;;;;;6238198;22;20356;-89
2022/09/13 11:39:21;;;;;;;;;;;33.80;35.20;;;;;;6239914;22;19907;-91
2022/09/13 11:42:05;;;;;;;;;;;33.60;35.20;;;;;;6236091;23;19915;-88
2022/09/13 11:44:40;;;;;;;;;;;33.30;35.30;;;;;;6240123;22;19911;-92
2022/09/13 11:47:26;;;;;;;;;;;33.20;35.70;;;;;;6236502;23;19907;-90
2022/09/13 11:50:18;;;;;;;;;;;33.00;35.90;;;;;;6237589;22;19916;-90
2022/09/13 11:52:51;;;;;;;;;;;32.80;36.10;;;;;;6234129;22;19978;-86
2022/09/13 11:55:24;;;;;;;;;;;32.70;36.30;;;;;;6241166;22;19919;-88
2022/09/13 11:57:55;;;;;;;;;;;32.70;36.40;;;;;;6237815;22;19970;-88
2022/09/13 12:00:21;;;;;;;;;;;32.60;36.40;;;;;;6236121;22;19915;-86
2022/09/13 12:02:57;;;;;;;;;;;32.60;36.60;;;;;;6239252;22;19915;-86
2022/09/13 12:05:25;;;;;;;;;;;32.50;36.70;;;;;;6236746;23;20336;-94
2022/09/13 12:07:53;;;;;;;;;;;32.30;36.80;;;;;;6238583;22;19911;-92
2022/09/13 12:10:31;;;;;;;;;;;32.20;36.80;;;;;;6238844;22;20327;-88
2022/09/13 12:12:57;;;;;;;;;;;32.00;37.00;;;;;;6237661;22;19965;-89
2022/09/13 12:15:39;;;;;;;;;;;31.80;37.30;;;;;;6240325;22;19964;-89
2022/09/13 12:18:09;;;;;;;;;;;31.60;37.70;;;;;;6236268;22;19907;-89
2022/09/13 12:20:45;;;;;;;;;;;31.30;38.20;;;;;;6238076;22;20238;-89
2022/09/13 12:23:18;;;;;;;;;;;31.10;38.70;;;;;;6237831;22;19911;-86
2022/09/13 12:26:02;;;;;;;;;;;30.80;39.10;;;;;;6235938;23;19951;-92
2022/09/13 12:28:29;;;;;;;;;;;30.60;39.50;;;;;;6236791;22;19908;-91
2022/09/13 12:31:00;;;;;;;;;;;30.40;39.90;;;;;;6238985;22;20038;-87
2022/09/13 12:33:26;;;;;;;;;;;30.30;40.10;;;;;;6239346;22;20695;-92
2022/09/13 12:35:52;;;;;;;;;;;30.20;40.40;;;;;;6237651;23;19986;-85
2022/09/13 12:38:20;;;;;;;;;;;30.20;40.60;;;;;;6238629;22;20003;-88
2022/09/13 12:40:53;;;;;;;;;;;30.20;40.60;;;;;;6239073;22;19912;-90
2022/09/13 12:43:37;;;;;;;;;;;30.30;40.60;;;;;;6240503;22;19919;-86
2022/09/13 12:46:21;;;;;;;;;;;30.30;40.70;;;;;;6235549;23;19919;-86
2022/09/13 12:48:48;;;;;;;;;;;30.30;40.70;;;;;;6233782;22;20687;-85
2022/09/13 12:51:16;;;;;;;;;;;30.30;40.80;;;;;;6237899;23;19942;-93
2022/09/13 12:53:55;;;;;;;;;;;30.40;40.70;;;;;;6235775;22;19921;-86
2022/09/13 12:56:26;;;;;;;;;;;30.50;40.70;;;;;;6237502;22;19938;-87
2022/09/13 12:59:02;;;;;;;;;;;30.70;40.60;;;;;;6258781;22;19915;-90
2022/09/13 13:01:29;;;;;;;;;;;30.80;40.70;;;;;;6237777;22;19919;-90
2022/09/13 13:04:14;;;;;;;;;;;31.00;40.40;;;;;;6237496;22;20311;-88
2022/09/13 13:06:51;;;;;;;;;;;31.10;40.20;;;;;;6242276;22;19946;-84
2022/09/13 13:09:35;;;;;;;;;;;31.20;40.10;;;;;;6245925;22;20278;-87
2022/09/13 13:12:01;;;;;;;;;;;31.40;40.00;;;;;;6238750;23;19998;-89
2022/09/13 13:14:36;;;;;;;;;;;31.70;39.80;;;;;;6240336;22;19935;-92
2022/09/13 13:17:20;;;;;;;;;;;32.00;39.20;;;;;;6239708;23;19916;-85
2022/09/13 13:19:46;;;;;;;;;;;32.30;39.00;;;;;;6235848;22;19916;-93
2022/09/13 13:22:30;;;;;;;;;;;32.50;38.80;;;;;;6236785;23;20613;-89
2022/09/13 13:24:56;;;;;;;;;;;32.80;38.50;;;;;;6239653;22;19923;-92
2022/09/13 13:27:39;;;;;;;;;;;33.00;38.30;;;;;;6237961;23;19907;-90
2022/09/13 13:30:23;;;;;;;;;;;33.10;38.00;;;;;;6237638;23;19962;-88
2022/09/13 13:33:07;;;;;;;;;;;33.10;37.60;;;;;;6241699;22;19918;-90
2022/09/13 13:35:32;;;;;;;;;;;33.20;37.50;;;;;;6241754;23;19916;-90
2022/09/13 13:38:14;;;;;;;;;;;33.30;36.90;;;;;;6238489;22;20514;-87
2022/09/13 13:40:40;;;;;;;;;;;33.40;36.50;;;;;;6240387;22;19915;-87
2022/09/13 13:43:14;;;;;;;;;;;33.40;36.30;;;;;;6239116;22;19970;-93
2022/09/13 13:45:55;;;;;;;;;;;33.40;36.30;;;;;;6240085;22;19934;-89
2022/09/13 13:48:39;;;;;;;;;;;33.40;36.30;;;;;;6264631;22;20316;-89
2022/09/13 13:51:15;;;;;;;;;;;33.50;35.90;;;;;;6237753;22;19916;-87
2022/09/13 13:53:44;;;;;;;;;;;33.50;35.00;;;;;;6236513;22;19907;-89
2022/09/13 13:56:26;;;;;;;;;;;33.30;35.30;;;;;;6237546;23;19915;-93
2022/09/13 13:58:57;;;;;;;;;;;33.20;35.50;;;;;;6238155;22;20319;-92
2022/09/13 14:01:26;;;;;;;;;;;33.20;35.90;;;;;;6241481;22;19916;-85
2022/09/13 14:03:57;;;;;;;;;;;33.20;35.90;;;;;;6236556;22;19911;-89
2022/09/13 14:06:41;;;;;;;;;;;33.10;36.00;;;;;;6235605;23;19950;-86
2022/09/13 14:09:15;;;;;;;;;;;32.90;36.00;;;;;;6239021;22;19934;-91
2022/09/13 14:11:47;;;;;;;;;;;32.60;36.50;;;;;;6241215;22;19918;-87
2022/09/13 14:14:15;;;;;;;;;;;32.40;36.50;;;;;;6238071;22;19912;-87
2022/09/13 14:16:56;;;;;;;;;;;32.30;36.80;;;;;;6238031;23;19912;-87
2022/09/13 14:19:23;;;;;;;;;;;32.20;37.00;;;;;;6239886;22;19918;-93
2022/09/13 14:22:03;;;;;;;;;;;32.10;37.10;;;;;;6237141;23;19920;-87
2022/09/13 14:24:34;;;;;;;;;;;32.10;37.40;;;;;;6242734;22;20622;-90
2022/09/13 14:27:00;;;;;;;;;;;32.10;37.50;;;;;;6237303;22;19920;-85
2022/09/13 14:29:26;;;;;;;;;;;32.20;37.60;;;;;;6238555;22;20248;-89
2022/09/13 14:31:53;;;;;;;;;;;32.20;37.50;;;;;;6239624;22;19939;-89
2022/09/13 14:34:23;;;;;;;;;;;32.20;37.30;;;;;;6235872;22;20506;-87
2022/09/13 14:36:53;;;;;;;;;;;32.20;37.20;;;;;;6235953;23;19931;-92